Time;durP1;ratioP1;P1;durP2;ratioP2;P2;SDS_P1;SDS_P2;PMS_P1;PMS_P2;Temp;Humidity;BMP_temperature;BMP_pressure;BME280_temperature;BME280_humidity;BME280_pressure;Samples;Min_cycle;Max_cycle;Signal;HPM_P1;HPM_P2
2021/07/19 00:00:47;;;;;;;6.18;4.80;;;25.70;99.90;;;;;;5112655;28;20119;-93
2021/07/19 00:03:12;;;;;;;6.18;4.78;;;25.70;99.90;;;;;;5096251;28;20119;-89
2021/07/19 00:05:38;;;;;;;6.32;4.45;;;25.70;99.90;;;;;;5113036;28;20024;-89
2021/07/19 00:08:06;;;;;;;7.18;5.20;;;25.70;99.90;;;;;;5095726;28;20035;-89
2021/07/19 00:10:32;;;;;;;5.72;4.47;;;25.70;99.90;;;;;;5111736;28;20051;-87
2021/07/19 00:12:58;;;;;;;6.07;5.00;;;25.70;99.90;;;;;;5113652;28;20135;-88
2021/07/19 00:15:26;;;;;;;4.95;4.40;;;25.70;99.90;;;;;;5112680;28;20054;-89
2021/07/19 00:17:53;;;;;;;5.38;4.78;;;25.70;99.90;;;;;;5112442;28;20431;-87
2021/07/19 00:20:20;;;;;;;5.53;4.70;;;25.70;99.90;;;;;;5095743;28;20389;-89
2021/07/19 00:22:46;;;;;;;5.13;4.35;;;25.70;99.90;;;;;;5112711;28;20392;-89
2021/07/19 00:25:14;;;;;;;5.45;4.70;;;25.70;99.90;;;;;;5112682;28;20115;-89
2021/07/19 00:27:44;;;;;;;5.43;4.82;;;25.70;99.90;;;;;;5116824;28;20068;-88
2021/07/19 00:30:13;;;;;;;6.15;4.88;;;25.70;99.90;;;;;;5117666;28;20034;-89
2021/07/19 00:32:40;;;;;;;6.22;5.07;;;25.70;99.90;;;;;;5114736;28;20044;-88
2021/07/19 00:35:07;;;;;;;5.88;4.78;;;25.70;99.90;;;;;;5095756;28;20106;-89
2021/07/19 00:37:32;;;;;;;6.05;5.15;;;25.70;99.90;;;;;;5115736;28;20054;-90
2021/07/19 00:39:59;;;;;;;6.15;5.15;;;25.70;99.90;;;;;;5099117;28;20465;-89
2021/07/19 00:42:25;;;;;;;5.95;5.00;;;25.70;99.90;;;;;;5116254;28;20146;-90
2021/07/19 00:44:51;;;;;;;6.55;5.35;;;25.70;99.90;;;;;;5116115;28;20358;-90
2021/07/19 00:47:17;;;;;;;6.35;5.25;;;25.70;99.90;;;;;;5116356;28;20035;-90
2021/07/19 00:49:44;;;;;;;6.13;5.22;;;25.70;99.90;;;;;;5099468;28;20038;-90
2021/07/19 00:52:11;;;;;;;6.20;5.28;;;25.70;99.90;;;;;;5117395;28;20028;-90
2021/07/19 00:54:39;;;;;;;6.00;5.28;;;25.70;99.90;;;;;;5116214;28;20144;-89
2021/07/19 00:57:06;;;;;;;6.35;5.50;;;25.70;99.90;;;;;;5115766;28;20028;-90
2021/07/19 00:59:34;;;;;;;6.35;5.32;;;25.70;99.90;;;;;;5117256;28;20026;-89
2021/07/19 01:02:03;;;;;;;6.07;5.18;;;25.70;99.90;;;;;;5099244;28;20057;-88
2021/07/19 01:04:31;;;;;;;6.45;5.75;;;25.70;99.90;;;;;;5115123;28;20024;-90
2021/07/19 01:07:02;;;;;;;7.35;6.35;;;25.80;99.90;;;;;;5116047;28;20102;-90
2021/07/19 01:09:31;;;;;;;7.38;5.72;;;25.70;99.90;;;;;;5115524;28;20032;-90
2021/07/19 01:11:59;;;;;;;6.95;5.78;;;25.70;99.90;;;;;;5117194;28;20055;-90
2021/07/19 01:14:25;;;;;;;7.15;6.03;;;25.70;99.90;;;;;;5115995;28;20031;-90
2021/07/19 01:16:52;;;;;;;7.10;6.13;;;25.80;99.90;;;;;;5116692;28;20073;-89
2021/07/19 01:19:21;;;;;;;7.53;6.25;;;25.70;99.90;;;;;;5118467;28;20020;-89
2021/07/19 01:22:14;;;;;;;6.25;5.65;;;25.70;99.90;;;;;;5115393;28;20032;-90
2021/07/19 01:24:47;;;;;;;7.60;6.20;;;25.80;99.90;;;;;;5115241;28;20118;-90
2021/07/19 01:27:36;;;;;;;6.47;5.55;;;25.80;99.90;;;;;;5116647;28;20027;-89
2021/07/19 01:30:05;;;;;;;7.05;6.00;;;25.80;99.90;;;;;;5099918;28;20039;-90
2021/07/19 01:32:33;;;;;;;8.25;6.25;;;25.70;99.90;;;;;;5115128;28;20039;-89
2021/07/19 01:35:01;;;;;;;7.20;6.10;;;25.70;99.90;;;;;;5115589;28;20461;-89
2021/07/19 01:37:31;;;;;;;7.22;5.82;;;25.70;99.90;;;;;;5115757;28;20080;-90
2021/07/19 01:39:59;;;;;;;6.82;6.13;;;25.70;99.90;;;;;;5115179;28;20129;-91
2021/07/19 01:42:25;;;;;;;6.82;5.85;;;25.70;99.90;;;;;;5115062;28;20043;-90
2021/07/19 01:44:53;;;;;;;7.50;6.20;;;25.80;99.90;;;;;;5116426;28;20025;-91
2021/07/19 01:47:18;;;;;;;6.55;5.63;;;25.70;99.90;;;;;;5114703;28;20123;-91
2021/07/19 01:49:45;;;;;;;6.43;5.72;;;25.80;99.90;;;;;;5132104;27;20034;-91
2021/07/19 01:52:13;;;;;;;8.00;6.53;;;25.80;99.90;;;;;;5114872;28;20424;-90
2021/07/19 01:54:41;;;;;;;7.22;5.57;;;25.80;99.90;;;;;;5114989;28;20027;-90
2021/07/19 01:57:09;;;;;;;7.68;5.75;;;25.80;99.90;;;;;;5097775;28;20049;-90
2021/07/19 01:59:35;;;;;;;6.28;5.60;;;25.70;99.90;;;;;;5114746;28;20043;-91
2021/07/19 02:02:02;;;;;;;7.28;5.97;;;25.70;99.90;;;;;;5114616;28;20055;-90
2021/07/19 02:04:30;;;;;;;6.40;5.25;;;25.70;99.90;;;;;;5114241;28;20485;-90
2021/07/19 02:06:56;;;;;;;6.35;5.63;;;25.70;99.90;;;;;;5114811;28;20496;-90
2021/07/19 02:09:23;;;;;;;6.32;5.65;;;25.70;99.90;;;;;;5097088;28;20028;-90
2021/07/19 02:11:49;;;;;;;6.50;5.63;;;25.70;99.90;;;;;;5113942;28;20595;-90
2021/07/19 02:14:17;;;;;;;6.55;5.82;;;25.80;99.90;;;;;;5114470;28;20069;-90
2021/07/19 02:16:48;;;;;;;6.85;5.90;;;25.70;99.90;;;;;;5114556;28;20079;-90
2021/07/19 02:19:14;;;;;;;5.90;5.25;;;25.70;99.90;;;;;;5114266;28;20028;-90
2021/07/19 02:21:42;;;;;;;5.90;5.13;;;25.70;99.90;;;;;;5097220;28;20042;-88
2021/07/19 02:24:08;;;;;;;6.70;5.85;;;25.70;99.90;;;;;;5097079;28;20389;-90
2021/07/19 02:26:34;;;;;;;6.22;5.40;;;25.70;99.90;;;;;;5114352;28;20528;-89
2021/07/19 02:29:00;;;;;;;5.93;5.10;;;25.70;99.90;;;;;;5114000;28;20058;-90
2021/07/19 02:31:26;;;;;;;6.00;5.38;;;25.70;99.90;;;;;;5114841;28;20046;-90
2021/07/19 02:33:53;;;;;;;6.40;5.38;;;25.70;99.90;;;;;;5097273;28;20384;-91
2021/07/19 02:36:20;;;;;;;6.13;5.20;;;25.70;99.90;;;;;;5113733;28;20055;-91
2021/07/19 02:38:51;;;;;;;6.72;5.20;;;25.70;99.90;;;;;;5114227;28;20024;-90
2021/07/19 02:41:24;;;;;;;6.05;5.13;;;25.70;99.90;;;;;;5114932;28;20054;-90
2021/07/19 02:43:53;;;;;;;5.50;4.68;;;25.70;99.90;;;;;;5120267;28;20066;-90
2021/07/19 02:46:22;;;;;;;6.60;5.90;;;25.70;99.90;;;;;;5119727;28;20031;-89
2021/07/19 02:48:55;;;;;;;5.97;5.35;;;25.70;99.90;;;;;;5114481;28;20031;-90
2021/07/19 02:51:22;;;;;;;6.07;5.10;;;25.70;99.90;;;;;;5115103;28;20032;-90
2021/07/19 02:53:53;;;;;;;6.35;5.65;;;25.70;99.90;;;;;;5113964;28;20082;-90
2021/07/19 02:56:21;;;;;;;5.32;4.80;;;25.70;99.90;;;;;;5114775;28;20030;-89
2021/07/19 02:58:47;;;;;;;7.13;5.40;;;25.70;99.90;;;;;;5113509;28;20016;-89
2021/07/19 03:01:17;;;;;;;5.68;4.88;;;25.70;99.90;;;;;;5113990;28;20126;-89
2021/07/19 03:03:45;;;;;;;5.90;5.00;;;25.70;99.90;;;;;;5113859;28;20019;-89
2021/07/19 03:06:18;;;;;;;6.00;4.88;;;25.70;99.90;;;;;;5115222;28;20019;-90
2021/07/19 03:08:45;;;;;;;5.63;5.00;;;25.70;99.90;;;;;;5116514;28;20385;-88
2021/07/19 03:11:25;;;;;;;6.18;4.95;;;25.70;99.90;;;;;;5115049;28;20055;-89
2021/07/19 03:13:58;;;;;;;5.25;4.38;;;25.70;99.90;;;;;;5115442;28;20059;-88
2021/07/19 03:16:26;;;;;;;5.35;4.32;;;25.70;99.90;;;;;;5115427;28;20549;-90
2021/07/19 03:18:57;;;;;;;5.50;4.90;;;25.70;99.90;;;;;;5113683;28;20035;-89
2021/07/19 03:21:24;;;;;;;5.82;4.75;;;25.70;99.90;;;;;;5113539;28;20023;-90
2021/07/19 03:23:55;;;;;;;5.65;4.90;;;25.70;99.90;;;;;;5115081;28;20046;-91
2021/07/19 03:26:22;;;;;;;5.65;4.70;;;25.70;99.90;;;;;;5113784;28;20023;-89
2021/07/19 03:28:49;;;;;;;5.35;4.60;;;25.70;99.90;;;;;;5114629;28;20024;-90
2021/07/19 03:31:16;;;;;;;5.97;4.72;;;25.70;99.90;;;;;;5096619;28;20070;-91
2021/07/19 03:33:43;;;;;;;5.05;4.25;;;25.70;99.90;;;;;;5113087;28;20080;-89
2021/07/19 03:36:12;;;;;;;5.25;4.53;;;25.70;99.90;;;;;;5114693;28;20350;-89
2021/07/19 03:38:41;;;;;;;5.00;4.32;;;25.70;99.90;;;;;;5118692;28;20035;-90
2021/07/19 03:41:08;;;;;;;5.13;4.32;;;25.70;99.90;;;;;;5114567;28;20028;-90
2021/07/19 03:43:34;;;;;;;4.97;4.28;;;25.70;99.90;;;;;;5114712;28;20089;-90
2021/07/19 03:46:01;;;;;;;5.32;4.38;;;25.70;99.90;;;;;;5113724;28;20062;-89
2021/07/19 03:48:27;;;;;;;4.35;3.75;;;25.70;99.90;;;;;;5115677;28;20024;-89
2021/07/19 03:50:54;;;;;;;5.18;4.10;;;25.70;99.90;;;;;;5119935;28;20112;-89
2021/07/19 03:53:20;;;;;;;5.30;4.25;;;25.70;99.90;;;;;;5106626;28;20122;-91
2021/07/19 03:55:48;;;;;;;5.78;4.43;;;25.70;99.90;;;;;;5121065;28;20034;-90
2021/07/19 03:58:17;;;;;;;4.55;4.07;;;25.70;99.90;;;;;;5098158;28;20469;-90
2021/07/19 04:00:44;;;;;;;3.97;3.58;;;25.70;99.90;;;;;;5114905;28;20458;-90
2021/07/19 04:03:26;;;;;;;5.50;4.15;;;25.70;99.90;;;;;;5114834;28;20030;-90
2021/07/19 04:05:59;;;;;;;4.05;3.65;;;25.70;99.90;;;;;;5115912;28;20028;-90
2021/07/19 04:08:28;;;;;;;4.00;3.30;;;25.70;99.90;;;;;;5113758;28;20373;-90
2021/07/19 04:10:55;;;;;;;4.45;3.85;;;25.70;99.90;;;;;;5115966;28;20055;-89
2021/07/19 04:13:21;;;;;;;4.30;3.90;;;25.70;99.90;;;;;;5117030;28;20085;-91
2021/07/19 04:15:52;;;;;;;4.32;3.58;;;25.70;99.90;;;;;;5117217;28;20024;-91
2021/07/19 04:18:21;;;;;;;4.10;3.70;;;25.70;99.90;;;;;;5100398;28;20050;-90
2021/07/19 04:20:49;;;;;;;4.00;3.53;;;25.70;99.90;;;;;;5118095;28;20023;-90
2021/07/19 04:23:15;;;;;;;4.03;3.63;;;25.70;99.90;;;;;;5116466;28;20023;-90
2021/07/19 04:25:42;;;;;;;3.70;3.35;;;25.70;99.90;;;;;;5116157;28;20088;-90
2021/07/19 04:28:08;;;;;;;4.28;3.72;;;25.70;99.90;;;;;;5116870;28;20384;-90
2021/07/19 04:30:35;;;;;;;4.18;3.28;;;25.70;99.90;;;;;;5100243;28;20130;-91
2021/07/19 04:33:02;;;;;;;4.35;3.83;;;25.70;99.90;;;;;;5118099;27;20384;-91
2021/07/19 04:35:33;;;;;;;4.03;3.55;;;25.70;99.90;;;;;;5121635;28;20496;-89
2021/07/19 04:38:02;;;;;;;4.03;3.58;;;25.70;99.90;;;;;;5120086;28;20488;-89
2021/07/19 04:40:31;;;;;;;4.05;3.60;;;25.70;99.90;;;;;;5126708;28;20035;-90
2021/07/19 04:42:58;;;;;;;4.15;3.50;;;25.70;99.90;;;;;;5123413;28;20024;-90
2021/07/19 04:45:24;;;;;;;3.75;3.38;;;25.70;99.90;;;;;;5127089;28;20019;-91
2021/07/19 04:47:50;;;;;;;3.60;3.30;;;25.70;99.90;;;;;;5119110;28;20032;-90
2021/07/19 04:50:20;;;;;;;3.38;3.08;;;25.70;99.90;;;;;;5103304;28;20023;-92
2021/07/19 04:52:47;;;;;;;3.53;3.10;;;25.70;99.90;;;;;;5101260;28;20362;-90
2021/07/19 04:55:20;;;;;;;4.25;3.38;;;25.70;99.90;;;;;;5124533;28;20031;-90
2021/07/19 04:57:51;;;;;;;4.22;3.40;;;25.70;99.90;;;;;;5118860;28;20016;-91
2021/07/19 05:00:18;;;;;;;3.42;3.13;;;25.70;99.90;;;;;;5108727;28;20027;-91
2021/07/19 05:02:46;;;;;;;3.75;3.35;;;25.70;99.90;;;;;;5085102;28;20059;-89
2021/07/19 05:05:18;;;;;;;4.00;3.60;;;25.70;99.90;;;;;;5099033;28;20055;-91
2021/07/19 05:07:45;;;;;;;3.58;3.28;;;25.70;99.90;;;;;;5099198;28;20019;-90
2021/07/19 05:10:16;;;;;;;4.22;3.53;;;25.70;99.90;;;;;;5098957;28;20454;-90
2021/07/19 05:12:44;;;;;;;3.80;3.42;;;25.70;99.90;;;;;;5117347;28;20538;-91
2021/07/19 05:15:11;;;;;;;3.92;3.53;;;25.70;99.90;;;;;;5098887;28;20038;-91
2021/07/19 05:17:41;;;;;;;4.88;3.85;;;25.70;99.90;;;;;;5099215;28;20024;-90
2021/07/19 05:20:14;;;;;;;4.10;3.40;;;25.70;99.90;;;;;;5116737;28;20020;-89
2021/07/19 05:22:48;;;;;;;3.85;3.45;;;25.70;99.90;;;;;;5115310;28;20436;-89
2021/07/19 05:25:22;;;;;;;3.72;3.30;;;25.70;99.90;;;;;;5116505;28;20359;-90
2021/07/19 05:28:05;;;;;;;3.72;3.33;;;25.70;99.90;;;;;;5098220;28;20037;-90
2021/07/19 05:30:32;;;;;;;4.20;3.33;;;25.70;99.90;;;;;;5116635;28;20023;-89
2021/07/19 05:32:58;;;;;;;4.03;3.38;;;25.70;99.90;;;;;;5081335;28;20059;-89
2021/07/19 05:35:23;;;;;;;4.82;3.17;;;25.70;99.90;;;;;;5081307;28;20066;-88
2021/07/19 05:37:52;;;;;;;4.35;3.78;;;25.70;99.90;;;;;;5098040;28;20092;-89
2021/07/19 05:40:18;;;;;;;3.90;3.50;;;25.70;99.90;;;;;;5098276;28;20031;-89
2021/07/19 05:42:44;;;;;;;3.78;3.15;;;25.70;99.90;;;;;;5097915;28;20035;-88
2021/07/19 05:45:12;;;;;;;3.50;2.85;;;25.70;99.90;;;;;;5115862;28;20102;-88
2021/07/19 05:47:37;;;;;;;3.03;2.72;;;25.70;99.90;;;;;;5064304;28;20032;-89
2021/07/19 05:50:07;;;;;;;3.28;2.75;;;25.70;99.90;;;;;;5115365;28;20062;-87
2021/07/19 05:52:35;;;;;;;2.92;2.60;;;25.70;99.90;;;;;;5096463;28;20034;-88
2021/07/19 05:55:03;;;;;;;2.58;2.38;;;25.70;99.90;;;;;;5096953;28;20040;-89
2021/07/19 05:57:29;;;;;;;2.50;2.30;;;25.70;99.90;;;;;;5097473;28;20020;-90
2021/07/19 05:59:57;;;;;;;2.22;2.03;;;25.70;99.90;;;;;;5097784;28;20030;-90
2021/07/19 06:02:23;;;;;;;3.15;2.30;;;25.70;99.90;;;;;;5115639;28;20050;-88
2021/07/19 06:04:49;;;;;;;2.58;2.38;;;25.70;99.90;;;;;;5082611;28;20041;-90
2021/07/19 06:07:15;;;;;;;2.90;2.10;;;25.70;99.90;;;;;;5099350;28;20081;-89
2021/07/19 06:09:44;;;;;;;2.65;2.30;;;25.70;99.90;;;;;;5098047;28;20024;-89
2021/07/19 06:12:15;;;;;;;2.10;1.90;;;25.70;99.90;;;;;;5097480;28;20100;-91
2021/07/19 06:14:41;;;;;;;2.28;2.08;;;25.70;99.90;;;;;;5082047;28;20038;-89
2021/07/19 06:17:12;;;;;;;1.95;1.80;;;25.70;99.90;;;;;;5080669;28;20122;-89
2021/07/19 06:19:40;;;;;;;2.50;2.20;;;25.70;99.90;;;;;;5065352;28;20122;-89
2021/07/19 06:22:09;;;;;;;1.65;1.55;;;25.70;99.90;;;;;;5115582;28;20034;-89
2021/07/19 06:24:35;;;;;;;2.22;1.90;;;25.70;99.90;;;;;;5081487;28;20034;-89
2021/07/19 06:27:03;;;;;;;1.77;1.60;;;25.70;99.90;;;;;;5063506;28;20036;-89
2021/07/19 06:29:29;;;;;;;1.98;1.77;;;25.70;99.90;;;;;;5100194;28;20384;-89
2021/07/19 06:31:54;;;;;;;2.33;1.80;;;25.70;99.90;;;;;;5097003;28;20032;-89
2021/07/19 06:34:20;;;;;;;1.70;1.33;;;25.70;99.90;;;;;;5097519;28;20032;-90
2021/07/19 06:36:46;;;;;;;2.05;1.70;;;25.70;99.90;;;;;;5080743;28;20031;-90
2021/07/19 06:39:11;;;;;;;1.60;1.50;;;25.70;99.90;;;;;;5097732;28;20069;-90
2021/07/19 06:41:37;;;;;;;1.67;1.58;;;25.70;99.90;;;;;;5096777;28;20034;-87
2021/07/19 06:44:03;;;;;;;1.67;1.50;;;25.70;99.90;;;;;;5115108;28;20020;-89
2021/07/19 06:46:29;;;;;;;1.27;1.17;;;25.70;99.90;;;;;;5115125;28;20023;-94
2021/07/19 06:48:55;;;;;;;1.55;1.40;;;25.70;99.90;;;;;;5099216;28;20396;-90
2021/07/19 06:51:21;;;;;;;1.50;1.40;;;25.70;99.90;;;;;;5085756;28;20389;-89
2021/07/19 06:53:47;;;;;;;2.00;1.70;;;25.70;99.90;;;;;;5081897;28;20050;-89
2021/07/19 06:56:14;;;;;;;1.83;1.42;;;25.70;99.90;;;;;;5097814;28;20454;-90
2021/07/19 06:58:46;;;;;;;1.92;1.35;;;25.70;99.90;;;;;;5116976;28;20289;-88
2021/07/19 07:01:12;;;;;;;1.83;1.20;;;25.70;99.90;;;;;;5101107;28;20043;-89
2021/07/19 07:03:38;;;;;;;1.33;1.23;;;25.60;99.80;;;;;;5116639;28;20077;-89
2021/07/19 07:06:08;;;;;;;1.45;1.33;;;25.60;99.70;;;;;;5099068;28;20063;-89
2021/07/19 07:08:39;;;;;;;1.63;1.52;;;25.60;99.90;;;;;;5084329;28;20465;-90
2021/07/19 07:11:05;;;;;;;1.85;1.60;;;25.60;99.60;;;;;;5084252;28;20129;-91
2021/07/19 07:13:31;;;;;;;1.80;1.50;;;25.60;99.60;;;;;;5099424;28;20056;-91
2021/07/19 07:15:56;;;;;;;1.35;1.25;;;25.60;99.60;;;;;;5101614;28;20035;-90
2021/07/19 07:18:25;;;;;;;1.88;1.60;;;25.60;99.60;;;;;;5099387;28;20031;-90
2021/07/19 07:20:51;;;;;;;1.35;1.25;;;25.60;99.50;;;;;;5081767;28;20031;-89
2021/07/19 07:23:17;;;;;;;2.20;1.63;;;25.60;99.50;;;;;;5098475;28;20373;-89
2021/07/19 07:25:47;;;;;;;1.88;1.30;;;25.60;99.50;;;;;;5098025;28;20036;-90
2021/07/19 07:28:14;;;;;;;1.30;1.20;;;25.60;99.50;;;;;;5097996;28;20042;-90
2021/07/19 07:30:45;;;;;;;1.40;1.30;;;25.60;99.50;;;;;;5080122;28;20047;-89
2021/07/19 07:33:16;;;;;;;1.50;1.40;;;25.60;99.50;;;;;;5099549;28;20027;-89
2021/07/19 07:35:51;;;;;;;1.40;1.30;;;25.60;99.70;;;;;;5115507;28;20024;-92
2021/07/19 07:38:21;;;;;;;1.50;1.40;;;25.60;99.40;;;;;;5097431;28;20480;-89
2021/07/19 07:40:48;;;;;;;1.38;1.27;;;25.60;99.40;;;;;;5080466;28;20028;-88
2021/07/19 07:43:14;;;;;;;1.48;1.20;;;25.60;99.40;;;;;;5097726;28;20466;-88
2021/07/19 07:45:48;;;;;;;2.17;1.98;;;25.60;99.40;;;;;;5099243;28;20031;-90
2021/07/19 07:48:17;;;;;;;1.40;1.30;;;25.60;99.30;;;;;;5102710;28;20020;-90
2021/07/19 07:50:43;;;;;;;1.45;1.35;;;25.60;99.30;;;;;;5119553;28;20059;-90
2021/07/19 07:53:13;;;;;;;1.38;1.27;;;25.60;99.30;;;;;;5102165;28;20062;-93
2021/07/19 07:55:39;;;;;;;1.40;1.30;;;25.60;99.20;;;;;;5104040;28;20046;-89
2021/07/19 07:58:07;;;;;;;1.20;1.08;;;25.60;99.20;;;;;;5100900;28;20464;-90
2021/07/19 08:00:37;;;;;;;1.17;1.08;;;25.60;99.20;;;;;;5119876;28;20019;-90
2021/07/19 08:03:05;;;;;;;1.23;1.13;;;25.60;99.20;;;;;;5100156;28;20461;-89
2021/07/19 08:05:33;;;;;;;1.20;1.10;;;25.60;99.20;;;;;;5084806;28;20020;-90
2021/07/19 08:07:59;;;;;;;1.25;1.15;;;25.60;99.10;;;;;;5085096;28;20027;-90
2021/07/19 08:10:25;;;;;;;1.27;1.17;;;25.60;99.10;;;;;;5118337;28;20513;-90
2021/07/19 08:16:15;;;;;;;1.30;1.20;;;25.60;99.00;;;;;;5099376;28;20023;-86
2021/07/19 08:18:45;;;;;;;1.52;1.42;;;25.60;99.10;;;;;;5071466;28;20050;-90
2021/07/19 08:21:11;;;;;;;1.52;1.42;;;25.60;99.00;;;;;;5088202;28;20032;-87
2021/07/19 08:23:45;;;;;;;1.23;1.13;;;25.60;99.10;;;;;;5066754;28;20035;-88
2021/07/19 08:26:14;;;;;;;1.10;1.00;;;25.60;99.10;;;;;;5082154;28;20024;-90
2021/07/19 08:28:40;;;;;;;1.85;1.30;;;25.60;99.10;;;;;;5104869;28;20285;-87
2021/07/19 08:31:06;;;;;;;1.23;1.13;;;25.60;99.10;;;;;;5088802;28;20031;-86
2021/07/19 08:33:37;;;;;;;1.33;1.23;;;25.60;99.20;;;;;;5100504;28;20036;-87
2021/07/19 08:36:06;;;;;;;1.20;1.10;;;25.60;99.20;;;;;;5102796;28;20025;-88
2021/07/19 08:38:34;;;;;;;1.13;1.05;;;25.60;99.20;;;;;;5109318;28;20028;-88
2021/07/19 08:41:05;;;;;;;1.23;1.13;;;25.60;99.20;;;;;;5091942;28;20458;-89
2021/07/19 08:43:32;;;;;;;1.23;1.13;;;25.60;99.20;;;;;;5082302;28;20028;-89
2021/07/19 08:46:00;;;;;;;1.10;1.10;;;25.60;99.30;;;;;;5098872;28;20020;-90
2021/07/19 08:48:25;;;;;;;2.00;1.40;;;25.60;99.20;;;;;;5081579;28;20053;-88
2021/07/19 08:50:51;;;;;;;1.35;1.20;;;25.60;99.20;;;;;;5085428;28;20119;-89
2021/07/19 08:53:17;;;;;;;1.40;1.30;;;25.60;99.20;;;;;;5079205;28;20035;-89
2021/07/19 08:55:49;;;;;;;1.38;1.27;;;25.60;99.20;;;;;;5062183;28;20039;-89
2021/07/19 08:58:17;;;;;;;1.50;1.40;;;25.60;99.20;;;;;;5095937;28;20052;-89
2021/07/19 09:00:43;;;;;;;1.45;1.30;;;25.60;99.30;;;;;;5078790;28;20454;-89
2021/07/19 09:03:13;;;;;;;1.23;1.00;;;25.70;99.30;;;;;;5079153;28;20039;-89
2021/07/19 09:05:41;;;;;;;1.10;1.00;;;25.70;99.30;;;;;;5062294;28;20024;-89
2021/07/19 09:08:13;;;;;;;1.20;1.10;;;25.60;99.20;;;;;;5079020;28;20035;-93
2021/07/19 09:10:47;;;;;;;1.17;1.08;;;25.60;99.20;;;;;;5079048;28;20115;-91
2021/07/19 09:16:45;;;;;;;1.30;1.20;;;25.70;99.20;;;;;;5097034;28;20433;-90
2021/07/19 09:19:16;;;;;;;1.02;1.00;;;25.70;99.20;;;;;;5097512;28;20519;-92
2021/07/19 09:21:44;;;;;;;1.40;1.20;;;25.70;99.20;;;;;;5078840;28;20035;-90
2021/07/19 09:27:03;;;;;;;1.20;1.10;;;25.70;99.00;;;;;;5117276;28;20035;-90
2021/07/19 09:32:53;;;;;;;1.40;1.30;;;25.70;99.00;;;;;;5096053;28;20081;-91
2021/07/19 09:35:19;;;;;;;1.50;1.20;;;25.70;99.00;;;;;;5077920;28;20059;-89
2021/07/19 09:37:44;;;;;;;1.42;1.33;;;25.70;99.10;;;;;;5096282;28;20028;-89
2021/07/19 09:40:13;;;;;;;1.35;1.25;;;25.70;99.10;;;;;;5061778;28;20024;-90
2021/07/19 09:42:43;;;;;;;1.05;1.00;;;25.70;99.10;;;;;;5095895;28;20040;-90
2021/07/19 09:45:21;;;;;;;1.58;1.48;;;25.70;99.10;;;;;;5060888;28;20087;-91
2021/07/19 09:47:47;;;;;;;1.30;1.20;;;25.70;99.00;;;;;;5077868;28;20028;-90
2021/07/19 09:50:18;;;;;;;1.45;1.30;;;25.70;99.00;;;;;;5077896;28;20035;-88
2021/07/19 09:52:45;;;;;;;1.42;1.33;;;25.70;99.00;;;;;;5077652;28;20145;-91
2021/07/19 09:55:26;;;;;;;1.08;1.08;;;25.70;98.90;;;;;;5095875;28;20024;-89
2021/07/19 09:57:56;;;;;;;1.42;1.20;;;25.70;98.80;;;;;;5077114;28;20046;-90
2021/07/19 10:00:23;;;;;;;1.52;1.38;;;25.70;98.80;;;;;;5060251;28;20028;-89
2021/07/19 10:02:50;;;;;;;2.08;1.48;;;25.70;98.80;;;;;;5077223;28;20040;-89
2021/07/19 10:05:24;;;;;;;1.38;1.27;;;25.70;98.70;;;;;;5076839;28;20079;-89
2021/07/19 10:07:49;;;;;;;1.50;1.40;;;25.70;98.70;;;;;;5076703;28;20025;-88
2021/07/19 10:10:16;;;;;;;1.33;1.13;;;25.70;98.60;;;;;;5077133;28;20331;-89
2021/07/19 10:12:42;;;;;;;1.60;1.27;;;25.70;98.50;;;;;;5103977;28;20066;-87
2021/07/19 10:15:11;;;;;;;1.40;1.30;;;25.70;98.50;;;;;;5097333;28;20059;-92
2021/07/19 10:17:41;;;;;;;1.80;1.60;;;25.70;98.40;;;;;;5098753;28;20115;-91
2021/07/19 10:20:08;;;;;;;1.40;1.30;;;25.70;98.40;;;;;;5098465;28;20028;-92
2021/07/19 10:22:44;;;;;;;1.23;1.13;;;25.70;98.30;;;;;;5081442;28;20050;-92
2021/07/19 10:28:46;;;;;;;1.80;1.50;;;25.70;98.40;;;;;;5116572;28;20069;-92
2021/07/19 10:31:25;;;;;;;1.65;1.30;;;25.70;98.40;;;;;;5069790;28;20035;-92
2021/07/19 10:37:36;;;;;;;2.10;1.63;;;25.70;98.50;;;;;;5133735;28;20484;-91
2021/07/19 10:40:05;;;;;;;1.60;1.50;;;25.70;98.50;;;;;;5088981;28;20050;-90
2021/07/19 10:42:38;;;;;;;1.60;1.50;;;25.70;98.40;;;;;;5096766;28;20465;-91
2021/07/19 10:45:24;;;;;;;1.95;1.75;;;25.70;98.40;;;;;;5115419;28;20051;-91
2021/07/19 10:51:21;;;;;;;2.45;2.10;;;25.80;98.40;;;;;;5115579;28;20561;-91
2021/07/19 10:57:11;;;;;;;2.20;2.00;;;25.70;98.40;;;;;;5115668;28;19961;-92
2021/07/19 10:59:39;;;;;;;2.20;2.00;;;25.70;98.50;;;;;;5097040;28;20528;-89
2021/07/19 11:02:04;;;;;;;2.25;1.98;;;25.70;98.60;;;;;;5095876;28;20031;-89
2021/07/19 11:04:34;;;;;;;2.53;2.25;;;25.80;98.60;;;;;;5115086;28;20034;-90
2021/07/19 11:07:13;;;;;;;2.10;1.90;;;25.80;98.60;;;;;;5081201;28;20465;-91
2021/07/19 11:09:40;;;;;;;2.17;1.98;;;25.80;98.70;;;;;;5079385;28;20061;-89
2021/07/19 11:12:18;;;;;;;2.30;2.10;;;25.80;98.60;;;;;;5078863;28;20052;-88
2021/07/19 11:14:50;;;;;;;2.33;1.95;;;25.80;98.50;;;;;;5096667;28;20035;-89
2021/07/19 11:17:18;;;;;;;2.17;1.98;;;25.80;98.50;;;;;;5114948;28;20059;-89
2021/07/19 11:19:45;;;;;;;2.10;1.90;;;25.80;98.40;;;;;;5095681;28;20038;-90
2021/07/19 11:22:12;;;;;;;2.10;1.90;;;25.80;98.30;;;;;;5114812;28;20118;-90
2021/07/19 11:24:47;;;;;;;2.30;2.10;;;25.80;98.10;;;;;;5114500;28;20031;-91
2021/07/19 11:27:22;;;;;;;3.03;2.30;;;25.80;98.00;;;;;;5096804;28;20024;-93
2021/07/19 11:30:07;;;;;;;2.05;1.85;;;25.80;97.90;;;;;;5096639;28;20085;-92
2021/07/19 11:32:36;;;;;;;2.17;1.75;;;25.80;97.90;;;;;;5096581;28;20038;-91
2021/07/19 11:35:12;;;;;;;2.30;2.10;;;25.80;98.00;;;;;;5114301;28;20028;-92
2021/07/19 11:37:44;;;;;;;2.45;2.22;;;25.80;97.90;;;;;;5096797;28;20019;-90
2021/07/19 11:40:12;;;;;;;2.28;2.08;;;25.80;97.90;;;;;;5097579;28;20023;-90
2021/07/19 11:42:47;;;;;;;2.40;2.20;;;25.80;97.90;;;;;;5084394;28;20035;-90
2021/07/19 11:45:19;;;;;;;2.00;1.80;;;25.80;97.80;;;;;;5104826;28;20031;-92
2021/07/19 11:47:52;;;;;;;2.20;2.00;;;25.80;97.70;;;;;;5118965;28;20043;-90
2021/07/19 11:50:38;;;;;;;2.25;2.05;;;25.80;97.60;;;;;;5115775;28;20104;-91
2021/07/19 11:53:06;;;;;;;2.58;2.35;;;25.80;97.50;;;;;;5113202;28;20032;-92
2021/07/19 11:55:34;;;;;;;2.42;2.00;;;25.80;97.60;;;;;;5097098;28;20027;-92
2021/07/19 11:58:04;;;;;;;2.20;1.92;;;25.80;97.70;;;;;;5115054;28;20469;-91
2021/07/19 12:00:38;;;;;;;2.28;2.08;;;25.80;97.70;;;;;;5096664;28;20067;-91
2021/07/19 12:03:06;;;;;;;;;;;25.80;97.80;;;;;;5097479;28;20051;-92
2021/07/19 12:05:35;;;;;;;2.10;1.90;;;25.80;97.80;;;;;;5096219;28;19990;-91
2021/07/19 12:08:11;;;;;;;2.40;2.17;;;25.80;97.80;;;;;;5096162;28;20091;-91
2021/07/19 12:10:41;;;;;;;2.60;2.30;;;25.80;97.80;;;;;;5097684;28;20028;-91
2021/07/19 12:13:16;;;;;;;2.58;2.05;;;25.80;97.70;;;;;;5095699;28;20071;-92
2021/07/19 12:15:53;;;;;;;2.55;2.35;;;25.80;97.80;;;;;;5115379;28;20108;-92
2021/07/19 12:18:45;;;;;;;;;;;;;;;;;;;;;
2021/07/19 12:21:33;;;;;;;2.70;2.20;;;25.80;97.80;;;;;;5124889;28;20099;-92
2021/07/19 12:24:00;;;;;;;2.47;2.28;;;25.80;97.80;;;;;;5097993;28;20039;-92
2021/07/19 12:26:50;;;;;;;2.42;2.20;;;25.80;97.80;;;;;;5062866;28;20380;-91
2021/07/19 12:29:27;;;;;;;2.22;2.03;;;25.80;97.80;;;;;;5101444;28;20032;-91
2021/07/19 12:32:22;;;;;;;2.75;2.53;;;25.80;97.80;;;;;;5097616;28;20491;-90
2021/07/19 12:34:48;;;;;;;2.53;2.33;;;25.90;97.80;;;;;;5060980;28;20447;-90
2021/07/19 12:37:17;;;;;;;2.30;2.10;;;25.90;97.90;;;;;;5099104;28;20028;-90
2021/07/19 12:39:55;;;;;;;2.30;2.10;;;25.90;97.80;;;;;;5099313;28;20015;-89
2021/07/19 12:42:28;;;;;;;2.35;2.15;;;25.80;97.80;;;;;;5099379;28;20030;-90
2021/07/19 12:44:56;;;;;;;2.13;1.92;;;25.90;97.80;;;;;;5117933;28;20020;-89
2021/07/19 12:47:24;;;;;;;2.10;1.90;;;25.90;97.80;;;;;;5100396;28;20054;-90
2021/07/19 12:49:50;;;;;;;4.28;2.40;;;25.80;97.80;;;;;;5110182;28;20045;-91
2021/07/19 12:52:25;;;;;;;2.05;1.85;;;25.90;97.80;;;;;;5105948;28;20114;-91
2021/07/19 12:54:56;;;;;;;;;;;25.90;97.80;;;;;;5105449;28;20032;-91
2021/07/19 12:57:24;;;;;;;2.40;2.20;;;25.90;97.70;;;;;;5099937;28;19903;-92
2021/07/19 12:59:51;;;;;;;3.25;2.75;;;25.90;97.70;;;;;;5099325;28;20019;-91
2021/07/19 13:02:21;;;;;;;2.50;2.30;;;25.90;97.70;;;;;;5098873;28;20107;-91
2021/07/19 13:04:50;;;;;;;2.45;2.25;;;25.90;97.70;;;;;;5098863;28;20039;-90
2021/07/19 13:07:29;;;;;;;2.67;2.38;;;25.90;97.70;;;;;;5082559;28;20473;-90
2021/07/19 13:10:12;;;;;;;2.63;2.42;;;25.90;97.70;;;;;;5100434;28;20036;-91
2021/07/19 13:12:49;;;;;;;2.30;2.10;;;25.90;97.80;;;;;;5093870;28;20059;-91
2021/07/19 13:15:20;;;;;;;2.67;2.22;;;25.90;97.70;;;;;;5096821;28;20039;-91
2021/07/19 13:17:46;;;;;;;2.95;2.63;;;25.90;97.70;;;;;;5079201;28;20119;-90
2021/07/19 13:20:16;;;;;;;2.63;2.40;;;25.90;97.70;;;;;;5078750;28;20051;-92
2021/07/19 13:22:47;;;;;;;2.53;2.33;;;25.90;97.70;;;;;;5078532;28;20056;-90
2021/07/19 13:25:19;;;;;;;2.78;2.50;;;25.90;97.60;;;;;;5096049;28;20020;-91